Time;durP1;ratioP1;P1;durP2;ratioP2;P2;SDS_P1;SDS_P2;PMS_P1;PMS_P2;Temp;Humidity;BMP_temperature;BMP_pressure;BME280_temperature;BME280_humidity;BME280_pressure;Samples;Min_cycle;Max_cycle;Signal;HPM_P1;HPM_P2
2023/04/13 00:01:32;;;;;;;1.93;1.90;;;;;;;6.79;72.74;99216.66;5096400;28;20587;-65
2023/04/13 00:04:01;;;;;;;2.17;1.97;;;;;;;6.79;73.07;99201.53;5096301;28;20285;-66
2023/04/13 00:06:29;;;;;;;1.57;1.57;;;;;;;6.83;72.03;99199.50;5096584;28;20290;-66
2023/04/13 00:08:57;;;;;;;1.90;1.90;;;;;;;6.81;72.91;99206.75;5095989;28;20251;-66
2023/04/13 00:11:26;;;;;;;3.03;1.93;;;;;;;6.82;72.86;99192.47;5096243;28;20206;-66
2023/04/13 00:13:54;;;;;;;2.77;2.07;;;;;;;6.85;72.42;99196.69;5095841;28;20622;-66
2023/04/13 00:16:21;;;;;;;1.80;1.80;;;;;;;6.85;72.97;99204.66;5095821;28;20273;-66
2023/04/13 00:18:49;;;;;;;2.43;2.33;;;;;;;6.90;72.48;99186.53;5095789;28;20260;-66
2023/04/13 00:21:15;;;;;;;3.13;1.97;;;;;;;6.93;72.27;99204.91;5095850;28;20281;-65
2023/04/13 00:23:43;;;;;;;2.00;2.00;;;;;;;6.95;71.70;99192.34;5095503;28;20203;-66
2023/04/13 00:26:09;;;;;;;1.90;1.90;;;;;;;6.93;72.30;99192.44;5096461;28;20609;-66
2023/04/13 00:28:36;;;;;;;3.37;1.90;;;;;;;6.99;71.19;99186.63;5095937;28;20167;-65
2023/04/13 00:31:02;;;;;;;2.23;2.03;;;;;;;7.08;70.80;99195.66;5095579;28;20225;-65
2023/04/13 00:33:31;;;;;;;2.23;2.23;;;;;;;7.08;71.15;99187.69;5077437;28;20197;-65
2023/04/13 00:35:58;;;;;;;2.00;2.00;;;;;;;7.11;71.38;99192.78;5077345;28;20201;-65
2023/04/13 00:38:28;;;;;;;2.03;2.03;;;;;;;7.12;71.09;99186.47;5077316;28;20190;-65
2023/04/13 00:40:55;;;;;;;5.93;2.40;;;;;;;7.08;71.86;99182.34;5095943;28;20265;-65
2023/04/13 00:43:21;;;;;;;2.87;2.33;;;;;;;7.08;72.85;99173.53;5095330;28;20752;-65
2023/04/13 00:45:48;;;;;;;1.63;1.63;;;;;;;7.07;72.24;99183.34;5095252;28;20198;-66
2023/04/13 00:48:15;;;;;;;2.07;2.07;;;;;;;6.98;73.67;99178.75;5095695;28;20209;-65
2023/04/13 00:50:41;;;;;;;8.40;1.80;;;;;;;6.99;75.01;99191.09;5095182;28;20611;-65
2023/04/13 00:53:12;;;;;;;2.23;2.13;;;;;;;6.90;75.86;99189.22;5095740;28;20253;-66
2023/04/13 00:55:40;;;;;;;1.60;1.60;;;;;;;6.85;76.40;99184.25;5095591;28;20206;-66
2023/04/13 00:58:08;;;;;;;1.80;1.80;;;;;;;6.71;78.01;99198.66;5076873;28;20190;-66
2023/04/13 01:00:37;;;;;;;2.03;2.03;;;;;;;6.72;78.56;99195.03;5076877;28;20197;-66
2023/04/13 01:03:04;;;;;;;1.97;1.97;;;;;;;6.61;79.97;99195.06;5094890;28;20247;-66
2023/04/13 01:05:38;;;;;;;2.20;2.20;;;;;;;6.51;80.91;99199.41;5096048;28;20596;-66
2023/04/13 01:08:21;;;;;;;2.17;2.17;;;;;;;6.34;81.67;99195.44;5095043;28;20610;-66
2023/04/13 01:11:02;;;;;;;2.27;2.23;;;;;;;6.28;82.39;99188.78;5095107;28;20273;-66
2023/04/13 01:13:55;;;;;;;2.40;2.30;;;;;;;6.23;83.16;99188.31;5076798;28;20289;-66
2023/04/13 01:16:47;;;;;;;2.30;2.17;;;;;;;6.15;84.19;99185.41;5076599;28;20189;-67
2023/04/13 01:19:28;;;;;;;2.07;1.97;;;;;;;6.07;84.84;99193.13;5076571;28;20236;-67
2023/04/13 01:21:55;;;;;;;2.10;2.10;;;;;;;6.03;85.09;99176.56;5076438;28;20281;-66
2023/04/13 01:24:47;;;;;;;2.03;2.03;;;;;;;5.93;85.37;99178.22;5094468;28;20236;-66
2023/04/13 01:27:19;;;;;;;2.47;2.00;;;;;;;6.00;85.75;99184.78;5094284;28;20301;-66
2023/04/13 01:29:47;;;;;;;3.00;2.90;;;;;;;5.99;85.25;99169.00;5094475;28;20197;-66
2023/04/13 01:32:15;;;;;;;2.50;2.50;;;;;;;5.99;85.77;99155.69;5094394;28;20185;-66
2023/04/13 01:34:41;;;;;;;3.17;2.87;;;;;;;5.96;85.53;99175.34;5075146;28;20618;-67
2023/04/13 01:37:08;;;;;;;2.53;2.43;;;;;;;6.04;85.26;99157.03;5076202;28;20265;-66
2023/04/13 01:39:36;;;;;;;3.07;2.50;;;;;;;6.00;85.05;99154.72;5076690;28;20205;-66
2023/04/13 01:42:17;;;;;;;2.67;2.57;;;;;;;5.99;84.28;99153.88;5076932;28;20190;-66
2023/04/13 01:44:47;;;;;;;2.57;2.20;;;;;;;6.05;84.51;99152.53;5075936;28;20210;-67
2023/04/13 01:47:19;;;;;;;2.10;2.00;;;;;;;6.08;84.42;99155.81;5094559;28;20597;-66
2023/04/13 01:50:18;;;;;;;2.33;2.33;;;;;;;6.06;84.28;99152.44;5076492;28;20213;-66
2023/04/13 01:52:56;;;;;;;5.17;2.93;;;;;;;6.14;84.44;99149.16;5094312;28;20625;-66
2023/04/13 01:55:24;;;;;;;2.73;2.63;;;;;;;6.23;83.58;99152.91;5076012;28;20308;-67
2023/04/13 01:57:56;;;;;;;2.07;2.07;;;;;;;6.19;83.17;99147.00;5075789;28;20208;-66
2023/04/13 02:00:30;;;;;;;2.00;1.80;;;;;;;6.23;83.15;99152.91;5075738;28;20196;-66
2023/04/13 02:02:57;;;;;;;2.47;2.10;;;;;;;6.29;82.35;99149.75;5075964;28;20538;-66
2023/04/13 02:05:24;;;;;;;1.67;1.63;;;;;;;6.36;82.72;99148.31;5093903;28;20621;-67
2023/04/13 02:07:50;;;;;;;1.87;1.87;;;;;;;6.38;81.29;99135.72;5093981;28;20300;-66
2023/04/13 02:10:18;;;;;;;5.33;2.07;;;;;;;6.38;80.96;99141.06;5075545;28;20281;-66
2023/04/13 02:12:46;;;;;;;1.27;1.27;;;;;;;6.43;81.14;99146.00;5075802;28;20224;-66
2023/04/13 02:15:13;;;;;;;1.47;1.47;;;;;;;6.42;81.39;99137.19;5075480;28;20237;-67
2023/04/13 02:17:40;;;;;;;1.87;1.87;;;;;;;6.44;81.64;99137.91;5075588;28;20656;-66
2023/04/13 02:20:12;;;;;;;1.83;1.83;;;;;;;6.44;81.76;99150.34;5075819;28;20186;-66
2023/04/13 02:22:40;;;;;;;1.50;1.50;;;;;;;6.39;82.41;99148.03;5093616;28;20228;-66
2023/04/13 02:25:07;;;;;;;1.57;1.57;;;;;;;6.37;82.76;99134.06;5075341;28;20564;-66
2023/04/13 02:27:34;;;;;;;4.73;2.10;;;;;;;6.38;82.80;99133.06;5075164;28;20758;-66
2023/04/13 02:30:01;;;;;;;4.23;2.10;;;;;;;6.37;83.25;99136.72;5093461;28;20186;-66
2023/04/13 02:32:28;;;;;;;1.80;1.80;;;;;;;6.31;83.67;99142.50;5075893;28;20189;-66
2023/04/13 02:34:55;;;;;;;1.93;1.83;;;;;;;6.33;83.71;99140.56;5093345;28;20209;-67
2023/04/13 02:37:22;;;;;;;2.00;1.97;;;;;;;6.39;83.57;99142.72;5075256;28;20197;-67
2023/04/13 02:39:49;;;;;;;2.20;2.20;;;;;;;6.32;84.18;99131.75;5075216;28;20186;-67
2023/04/13 02:42:16;;;;;;;3.83;2.57;;;;;;;6.37;83.88;99139.38;5075525;28;20190;-67
2023/04/13 02:44:44;;;;;;;2.30;1.70;;;;;;;6.34;83.54;99142.25;5075628;28;20230;-67
2023/04/13 02:47:10;;;;;;;2.67;1.70;;;;;;;6.37;83.54;99137.56;5079447;28;20263;-67
2023/04/13 02:49:38;;;;;;;1.93;1.93;;;;;;;6.33;84.17;99146.72;5079634;28;20190;-66
2023/04/13 02:52:20;;;;;;;1.90;1.80;;;;;;;6.37;83.90;99148.19;5080199;28;20192;-66
2023/04/13 02:54:53;;;;;;;1.60;1.60;;;;;;;6.38;83.67;99157.00;5079518;28;20567;-67
2023/04/13 02:57:24;;;;;;;2.17;2.17;;;;;;;6.38;83.97;99152.53;5079707;28;20684;-67
2023/04/13 02:59:52;;;;;;;2.43;2.10;;;;;;;6.37;84.14;99150.84;5079446;28;20197;-67
2023/04/13 03:02:20;;;;;;;2.53;1.80;;;;;;;6.41;83.81;99153.25;5079591;28;20189;-67
2023/04/13 03:04:47;;;;;;;1.53;1.53;;;;;;;6.42;83.64;99163.78;5079047;28;20263;-67
2023/04/13 03:07:16;;;;;;;2.90;2.80;;;;;;;6.38;84.22;99160.50;5079029;28;20213;-67
2023/04/13 03:09:46;;;;;;;3.73;3.70;;;;;;;6.38;84.15;99157.84;5079003;28;20681;-67
2023/04/13 03:12:13;;;;;;;2.70;2.60;;;;;;;6.35;84.06;99152.78;5079777;28;20186;-67
2023/04/13 03:14:42;;;;;;;5.90;5.07;;;;;;;6.37;84.51;99165.97;5078778;28;20399;-67
2023/04/13 03:17:10;;;;;;;2.77;2.67;;;;;;;6.37;84.13;99169.47;5079184;28;20678;-67
2023/04/13 03:19:38;;;;;;;7.47;2.67;;;;;;;6.33;84.64;99167.16;5078804;28;20219;-67
2023/04/13 03:22:05;;;;;;;2.60;2.10;;;;;;;6.39;84.07;99156.03;5079273;28;20718;-67
2023/04/13 03:24:36;;;;;;;2.50;2.30;;;;;;;6.41;83.74;99158.56;5078567;28;20691;-67
2023/04/13 03:27:06;;;;;;;1.83;1.83;;;;;;;6.49;83.45;99156.13;5078502;28;20827;-67
2023/04/13 03:29:38;;;;;;;3.03;2.00;;;;;;;6.47;83.04;99153.63;5078639;28;20190;-67
2023/04/13 03:32:06;;;;;;;2.20;2.20;;;;;;;6.51;83.02;99151.53;5078783;28;20239;-67
2023/04/13 03:34:35;;;;;;;1.87;1.87;;;;;;;6.55;82.81;99148.50;5078536;28;20213;-67
2023/04/13 03:37:09;;;;;;;4.53;2.00;;;;;;;6.62;82.35;99161.31;5078737;28;20220;-67
2023/04/13 03:39:37;;;;;;;1.53;1.53;;;;;;;6.60;82.19;99156.13;5078641;28;20193;-67
2023/04/13 03:42:05;;;;;;;1.47;1.47;;;;;;;6.64;82.58;99162.06;5078639;28;20190;-67
2023/04/13 03:44:32;;;;;;;5.20;1.40;;;;;;;6.63;82.99;99169.16;5078202;28;20213;-67
2023/04/13 03:47:01;;;;;;;2.63;1.80;;;;;;;6.62;83.13;99167.47;5078464;28;20224;-67
2023/04/13 03:49:33;;;;;;;2.03;1.77;;;;;;;6.64;83.19;99178.00;5078733;28;20314;-67
2023/04/13 03:51:59;;;;;;;1.30;1.30;;;;;;;6.65;83.56;99180.53;5096980;28;20660;-67
2023/04/13 03:54:31;;;;;;;2.17;2.07;;;;;;;6.63;83.66;99176.31;5078447;28;20218;-67
2023/04/13 03:57:01;;;;;;;1.63;1.63;;;;;;;6.65;82.47;99174.38;5076966;28;20220;-67
2023/04/13 03:59:29;;;;;;;1.57;1.43;;;;;;;6.71;81.34;99187.19;5078360;28;20193;-67
2023/04/13 04:01:56;;;;;;;2.00;1.67;;;;;;;6.76;81.01;99185.00;5078000;28;20380;-67
2023/04/13 04:04:23;;;;;;;2.17;2.07;;;;;;;6.77;81.71;99192.84;5096365;28;20202;-67
2023/04/13 04:06:51;;;;;;;1.43;1.43;;;;;;;6.76;82.34;99200.97;5078248;28;20220;-67
2023/04/13 04:09:17;;;;;;;2.10;2.00;;;;;;;6.82;82.31;99196.00;5096292;28;20193;-67
2023/04/13 04:11:45;;;;;;;1.57;1.57;;;;;;;6.80;82.38;99211.22;5077949;28;20190;-67
2023/04/13 04:14:15;;;;;;;3.30;2.00;;;;;;;6.72;83.60;99202.16;5078529;28;20210;-68
2023/04/13 04:16:51;;;;;;;2.00;2.00;;;;;;;6.74;84.17;99216.19;5078352;28;20200;-68
2023/04/13 04:19:18;;;;;;;2.23;2.13;;;;;;;6.70;84.11;99214.75;5077866;28;20200;-68
2023/04/13 04:21:45;;;;;;;3.80;2.17;;;;;;;6.65;84.66;99209.78;5078150;28;20200;-68
2023/04/13 04:24:26;;;;;;;2.20;2.10;;;;;;;6.66;84.06;99206.19;5077501;28;20222;-68
2023/04/13 04:26:57;;;;;;;2.10;2.10;;;;;;;6.69;84.07;99215.72;5077658;28;20197;-68
2023/04/13 04:29:34;;;;;;;2.00;1.90;;;;;;;6.70;84.10;99212.91;5077490;28;20243;-68
2023/04/13 04:32:12;;;;;;;1.47;1.47;;;;;;;6.70;83.66;99222.72;5078352;28;20255;-68
2023/04/13 04:34:39;;;;;;;1.27;1.27;;;;;;;6.71;83.38;99221.78;5077306;28;20239;-68
2023/04/13 04:37:07;;;;;;;1.90;1.90;;;;;;;6.73;83.06;99225.16;5077660;28;20216;-67
2023/04/13 04:39:49;;;;;;;2.80;2.03;;;;;;;6.73;83.19;99236.66;5077498;28;20193;-67
2023/04/13 04:42:17;;;;;;;2.27;1.73;;;;;;;6.72;83.14;99236.75;5077257;28;20193;-67
2023/04/13 04:44:48;;;;;;;2.10;2.10;;;;;;;6.77;82.93;99239.88;5077070;28;20695;-67
2023/04/13 04:47:18;;;;;;;2.23;2.03;;;;;;;6.71;83.28;99246.56;5077244;28;20644;-68
2023/04/13 04:50:09;;;;;;;1.93;1.93;;;;;;;6.78;83.31;99250.41;5077660;28;20569;-67
2023/04/13 04:52:38;;;;;;;2.83;1.63;;;;;;;6.81;83.23;99268.78;5077251;28;20213;-67
2023/04/13 04:55:06;;;;;;;2.50;2.30;;;;;;;6.82;83.67;99269.63;5076917;28;20275;-68
2023/04/13 04:57:35;;;;;;;2.07;1.97;;;;;;;6.79;83.88;99267.22;5095510;28;20213;-67
2023/04/13 05:00:15;;;;;;;2.63;2.23;;;;;;;6.77;84.01;99275.31;5077166;28;20192;-68
2023/04/13 05:02:50;;;;;;;2.33;2.13;;;;;;;6.78;83.67;99274.38;5077150;28;20663;-67
2023/04/13 05:05:17;;;;;;;2.93;2.23;;;;;;;6.78;83.58;99282.34;5076963;28;20220;-67
2023/04/13 05:07:44;;;;;;;2.03;2.03;;;;;;;6.76;83.64;99278.13;5076434;28;20221;-67
2023/04/13 05:10:12;;;;;;;2.63;2.27;;;;;;;6.76;83.37;99288.75;5076751;28;20293;-67
2023/04/13 05:12:44;;;;;;;2.00;2.00;;;;;;;6.76;83.75;99304.72;5076692;28;20217;-67
2023/04/13 05:15:11;;;;;;;2.30;2.30;;;;;;;6.75;84.12;99295.03;5077051;28;20263;-67
2023/04/13 05:17:37;;;;;;;3.07;2.77;;;;;;;6.77;84.08;99298.41;5094636;28;20206;-67
2023/04/13 05:20:08;;;;;;;2.17;2.07;;;;;;;6.78;84.68;99308.94;5077625;28;20185;-67
2023/04/13 05:22:43;;;;;;;3.70;3.07;;;;;;;6.75;84.89;99311.88;5076943;28;20220;-67
2023/04/13 05:25:10;;;;;;;2.23;2.20;;;;;;;6.73;85.75;99321.78;5076271;28;20297;-68
2023/04/13 05:27:37;;;;;;;2.30;2.30;;;;;;;6.65;85.85;99326.00;5076129;28;20630;-67
2023/04/13 05:30:04;;;;;;;2.33;2.33;;;;;;;6.64;86.12;99335.78;5076268;28;20548;-67
2023/04/13 05:32:35;;;;;;;3.07;2.97;;;;;;;6.71;85.77;99350.31;5076580;28;20220;-67
2023/04/13 05:35:03;;;;;;;2.70;2.60;;;;;;;6.71;86.19;99347.66;5076145;28;20580;-68
2023/04/13 05:37:29;;;;;;;2.90;2.80;;;;;;;6.74;86.00;99355.38;5077061;28;20197;-68
2023/04/13 05:39:56;;;;;;;3.93;3.60;;;;;;;6.75;85.95;99358.88;5076003;28;20212;-68
2023/04/13 05:42:29;;;;;;;2.47;2.40;;;;;;;6.78;85.96;99362.16;5076626;28;20583;-67
2023/04/13 05:44:56;;;;;;;2.67;2.67;;;;;;;6.79;86.02;99355.88;5076184;28;20380;-68
2023/04/13 05:47:24;;;;;;;2.60;2.40;;;;;;;6.80;86.19;99375.38;5075880;28;20630;-67
2023/04/13 05:49:55;;;;;;;2.23;2.23;;;;;;;6.79;85.63;99379.81;5076436;28;20198;-67
2023/04/13 05:52:23;;;;;;;4.40;3.27;;;;;;;6.88;85.85;99385.41;5076127;28;20202;-67
2023/04/13 05:54:51;;;;;;;2.60;2.60;;;;;;;6.91;85.90;99387.81;5075725;28;20206;-68
2023/04/13 05:57:20;;;;;;;3.47;3.27;;;;;;;6.89;85.39;99395.91;5075919;28;20656;-67
2023/04/13 05:59:49;;;;;;;2.80;2.80;;;;;;;6.98;85.42;99400.50;5075934;28;20243;-67
2023/04/13 06:02:19;;;;;;;2.93;2.93;;;;;;;7.01;85.10;99405.59;5076377;28;20247;-67
2023/04/13 06:04:47;;;;;;;2.93;2.93;;;;;;;7.03;84.94;99410.81;5075603;28;20226;-67
2023/04/13 06:07:15;;;;;;;3.50;3.50;;;;;;;7.15;84.96;99415.16;5075858;28;20197;-67
2023/04/13 06:09:42;;;;;;;3.83;3.67;;;;;;;7.27;84.33;99421.31;5093610;28;20687;-67
2023/04/13 06:12:08;;;;;;;4.63;4.53;;;;;;;7.31;83.48;99420.13;5075633;28;20197;-67
2023/04/13 06:14:35;;;;;;;4.87;4.40;;;;;;;7.42;83.35;99427.25;5075530;28;20209;-68
2023/04/13 06:17:02;;;;;;;5.07;4.87;;;;;;;7.41;82.61;99426.41;5094196;28;20586;-67
2023/04/13 06:19:28;;;;;;;4.33;4.10;;;;;;;7.40;82.69;99431.88;5074962;28;20183;-67
2023/04/13 06:21:55;;;;;;;4.07;4.07;;;;;;;7.39;81.70;99432.81;5075424;28;20549;-67
2023/04/13 06:24:22;;;;;;;4.40;4.20;;;;;;;7.35;82.23;99429.56;5075676;28;20239;-67
2023/04/13 06:26:50;;;;;;;4.20;4.10;;;;;;;7.34;81.60;99435.00;5075585;28;20616;-67
2023/04/13 06:29:16;;;;;;;4.60;4.50;;;;;;;7.38;82.14;99444.47;5075555;28;20252;-67
2023/04/13 06:31:53;;;;;;;4.70;4.60;;;;;;;7.44;81.65;99447.47;5075643;28;20274;-67
2023/04/13 06:34:19;;;;;;;4.73;3.53;;;;;;;7.44;81.85;99449.28;5075202;28;20211;-67
2023/04/13 06:36:46;;;;;;;4.37;4.30;;;;;;;7.52;81.87;99446.88;5075200;28;20197;-67
2023/04/13 06:39:15;;;;;;;5.80;4.20;;;;;;;7.57;81.68;99460.66;5075202;28;20730;-68
2023/04/13 06:41:50;;;;;;;4.00;3.70;;;;;;;7.64;81.33;99463.69;5076164;28;20543;-68
2023/04/13 06:44:40;;;;;;;3.23;3.23;;;;;;;7.71;81.34;99461.38;5093376;28;20581;-68
2023/04/13 06:47:06;;;;;;;3.57;3.37;;;;;;;7.85;80.63;99456.63;5093664;28;20181;-67
2023/04/13 06:49:33;;;;;;;4.13;3.83;;;;;;;7.92;79.78;99464.13;5075097;28;20682;-67
2023/04/13 06:52:01;;;;;;;4.00;3.70;;;;;;;7.98;79.09;99463.63;5075171;28;20189;-67
2023/04/13 06:54:27;;;;;;;3.57;3.47;;;;;;;8.00;79.00;99480.34;5075039;28;20210;-68
2023/04/13 06:57:00;;;;;;;3.63;3.53;;;;;;;8.01;78.67;99476.72;5075454;28;20616;-67
2023/04/13 06:59:27;;;;;;;3.87;3.70;;;;;;;8.00;78.88;99481.19;5093197;28;20197;-67
2023/04/13 07:01:53;;;;;;;3.83;3.60;;;;;;;8.05;78.51;99476.34;5093323;28;20193;-67
2023/04/13 07:04:20;;;;;;;4.43;3.70;;;;;;;8.08;77.55;99489.41;5075737;28;20303;-68
2023/04/13 07:06:47;;;;;;;4.47;4.37;;;;;;;8.08;76.87;99492.06;5074890;28;20299;-67
2023/04/13 07:09:14;;;;;;;5.20;4.97;;;;;;;8.08;76.94;99489.41;5092925;28;20717;-67
2023/04/13 07:11:40;;;;;;;4.67;3.83;;;;;;;8.13;76.74;99498.84;5074848;28;20279;-67
2023/04/13 07:14:07;;;;;;;3.93;3.83;;;;;;;8.19;76.35;99501.88;5074771;28;20213;-67
2023/04/13 07:16:34;;;;;;;4.27;4.17;;;;;;;8.26;75.26;99496.88;5075710;28;20181;-67
2023/04/13 07:19:01;;;;;;;8.73;3.87;;;;;;;8.36;76.81;99505.81;5074895;28;20186;-67
2023/04/13 07:21:27;;;;;;;5.73;4.00;;;;;;;8.48;74.51;99506.66;5075327;28;20196;-67
2023/04/13 07:24:00;;;;;;;4.20;4.07;;;;;;;8.55;75.17;99504.31;5074837;28;20243;-68
2023/04/13 07:26:28;;;;;;;4.50;4.00;;;;;;;8.57;74.65;99516.59;5074806;28;20198;-68
2023/04/13 07:28:55;;;;;;;7.40;3.77;;;;;;;8.52;73.85;99514.28;5075008;28;20302;-67
2023/04/13 07:31:26;;;;;;;3.67;3.57;;;;;;;8.60;74.78;99516.31;5076444;28;20189;-67
2023/04/13 07:33:54;;;;;;;3.70;3.60;;;;;;;8.77;73.62;99522.91;5078539;28;20234;-68
2023/04/13 07:36:27;;;;;;;3.63;3.53;;;;;;;8.60;72.56;99529.66;5097010;28;20159;-67
2023/04/13 07:38:57;;;;;;;4.63;4.33;;;;;;;8.69;72.49;99525.34;5078535;28;20247;-67
2023/04/13 07:41:24;;;;;;;9.00;3.30;;;;;;;8.66;72.16;99526.47;5078247;28;20190;-67
2023/04/13 07:43:55;;;;;;;4.10;4.00;;;;;;;8.71;73.13;99529.63;5078724;28;20702;-68
2023/04/13 07:46:25;;;;;;;3.60;3.60;;;;;;;8.65;72.22;99524.78;5078263;28;20261;-67
2023/04/13 07:48:53;;;;;;;11.40;4.03;;;;;;;8.58;73.24;99522.75;5078195;28;20229;-67
2023/04/13 07:51:27;;;;;;;3.87;3.67;;;;;;;8.55;73.73;99541.66;5078236;28;20209;-67
2023/04/13 07:53:54;;;;;;;4.97;4.60;;;;;;;8.52;74.58;99538.31;5078065;28;20278;-68
2023/04/13 07:56:21;;;;;;;4.93;4.43;;;;;;;8.40;75.73;99539.28;5078376;28;20668;-67
2023/04/13 07:58:50;;;;;;;3.73;3.57;;;;;;;8.52;76.34;99540.97;5078081;28;20562;-67
2023/04/13 08:01:17;;;;;;;4.57;4.20;;;;;;;8.64;76.50;99541.78;5078028;28;20219;-67
2023/04/13 08:03:44;;;;;;;7.40;4.20;;;;;;;8.63;75.71;99553.41;5077853;28;20225;-68
2023/04/13 08:06:19;;;;;;;4.57;4.27;;;;;;;8.70;75.38;99554.59;5077846;28;20660;-68
2023/04/13 08:08:46;;;;;;;3.87;3.77;;;;;;;8.61;75.48;99558.03;5061240;28;20234;-67
2023/04/13 08:11:12;;;;;;;4.10;3.80;;;;;;;8.73;74.81;99558.84;5077758;28;20194;-67
2023/04/13 08:13:40;;;;;;;3.20;3.10;;;;;;;8.71;75.52;99572.34;5077787;28;20199;-68
2023/04/13 08:16:08;;;;;;;4.70;4.27;;;;;;;8.74;75.62;99576.56;5078319;28;20185;-68
2023/04/13 08:18:34;;;;;;;3.67;3.50;;;;;;;8.73;74.79;99578.38;5077735;28;20241;-67
2023/04/13 08:21:13;;;;;;;3.30;3.20;;;;;;;8.66;74.23;99584.34;5077865;28;20687;-66
2023/04/13 08:23:42;;;;;;;3.27;3.17;;;;;;;8.65;74.66;99588.00;5077596;28;20192;-68
2023/04/13 08:26:19;;;;;;;3.80;3.70;;;;;;;8.66;75.04;99592.34;5077539;28;20243;-67
2023/04/13 08:28:51;;;;;;;2.90;2.90;;;;;;;8.65;75.08;99599.50;5095967;28;20259;-66
2023/04/13 08:31:18;;;;;;;3.17;3.00;;;;;;;8.67;74.03;99607.41;5077431;28;20231;-67
2023/04/13 08:33:51;;;;;;;5.57;3.23;;;;;;;8.82;75.14;99610.63;5077560;28;20224;-68
2023/04/13 08:36:17;;;;;;;3.20;3.10;;;;;;;8.90;75.65;99609.00;5077517;28;20261;-67
2023/04/13 08:38:49;;;;;;;6.77;4.33;;;;;;;8.92;74.62;99608.88;5077956;28;20618;-67
2023/04/13 08:41:20;;;;;;;5.53;5.13;;;;;;;8.81;74.67;99617.81;5077241;28;20194;-67
2023/04/13 08:43:53;;;;;;;5.17;4.47;;;;;;;8.68;75.00;99611.75;5076907;28;20208;-67
2023/04/13 08:46:23;;;;;;;9.97;4.50;;;;;;;8.54;75.09;99615.56;5077102;28;20196;-66
2023/04/13 08:48:55;;;;;;;5.07;4.57;;;;;;;8.60;74.37;99603.53;5077037;28;20266;-66
2023/04/13 08:51:30;;;;;;;8.33;4.87;;;;;;;8.65;74.45;99625.38;5077321;28;20193;-66
2023/04/13 08:53:58;;;;;;;14.53;4.20;;;;;;;8.62;74.10;99629.13;5077693;28;20210;-67
2023/04/13 08:56:30;;;;;;;5.90;4.20;;;;;;;8.76;74.23;99643.16;5077478;28;20202;-67
2023/04/13 08:59:16;;;;;;;3.47;3.37;;;;;;;8.72;74.02;99634.56;5076897;28;20186;-67
2023/04/13 09:01:47;;;;;;;7.70;3.67;;;;;;;8.79;73.38;99649.09;5095170;28;20173;-66
2023/04/13 09:04:19;;;;;;;5.03;4.63;;;;;;;8.79;74.38;99658.91;5077364;28;20300;-67
2023/04/13 09:06:50;;;;;;;4.13;4.03;;;;;;;8.84;74.22;99660.25;5077262;28;20265;-67
2023/04/13 09:09:19;;;;;;;4.43;4.17;;;;;;;8.89;74.33;99657.22;5076876;28;20216;-67
2023/04/13 09:11:45;;;;;;;5.07;4.67;;;;;;;8.85;73.88;99667.28;5076644;28;20194;-67
2023/04/13 09:14:18;;;;;;;11.23;4.80;;;;;;;8.89;72.90;99675.91;5076514;28;20209;-67
2023/04/13 09:16:46;;;;;;;11.07;4.83;;;;;;;8.89;72.89;99678.56;5094528;28;20656;-68
2023/04/13 09:19:29;;;;;;;13.53;5.70;;;;;;;8.96;72.93;99686.94;5076611;28;20221;-67
2023/04/13 09:21:56;;;;;;;9.37;5.03;;;;;;;8.85;72.58;99682.44;5094500;28;20174;-67
2023/04/13 09:24:22;;;;;;;5.40;5.07;;;;;;;8.78;72.31;99675.91;5094510;28;20277;-67
2023/04/13 09:26:49;;;;;;;5.47;4.90;;;;;;;8.89;72.93;99694.59;5094261;28;20249;-67
2023/04/13 09:29:18;;;;;;;5.13;4.70;;;;;;;9.02;73.28;99700.59;5093695;28;20205;-67
2023/04/13 09:31:46;;;;;;;6.00;4.17;;;;;;;9.05;72.61;99697.72;5094662;28;20640;-67
2023/04/13 09:34:24;;;;;;;4.23;3.67;;;;;;;9.22;72.65;99693.63;5094479;28;20209;-68
2023/04/13 09:36:50;;;;;;;7.13;4.27;;;;;;;9.35;72.72;99693.47;5094882;28;20173;-68
2023/04/13 09:39:25;;;;;;;5.63;4.23;;;;;;;9.43;71.92;99699.00;5094550;28;20642;-68
2023/04/13 09:41:53;;;;;;;4.43;4.23;;;;;;;9.55;72.58;99694.44;5094206;28;20189;-68
2023/04/13 09:44:23;;;;;;;4.90;3.93;;;;;;;9.61;70.46;99701.13;5094134;28;20615;-67
2023/04/13 09:46:57;;;;;;;10.60;4.53;;;;;;;9.77;70.74;99698.84;5094447;28;20181;-67
2023/04/13 09:49:24;;;;;;;4.60;4.30;;;;;;;9.81;70.36;99705.59;5094520;28;20283;-67
2023/04/13 09:51:53;;;;;;;6.07;5.70;;;;;;;9.72;69.55;99707.25;5094581;28;20280;-67
2023/04/13 09:54:20;;;;;;;6.20;5.63;;;;;;;9.74;69.96;99707.09;5093698;28;20210;-68
2023/04/13 09:56:53;;;;;;;6.00;4.83;;;;;;;9.65;69.78;99713.22;5093767;28;20182;-67
2023/04/13 09:59:22;;;;;;;10.63;5.20;;;;;;;9.63;69.97;99712.53;5094075;28;20202;-67
2023/04/13 10:01:50;;;;;;;6.87;5.27;;;;;;;9.39;69.19;99710.94;5094372;28;20248;-67
2023/04/13 10:04:16;;;;;;;3.83;3.73;;;;;;;9.35;70.21;99715.69;5094055;28;20625;-67
2023/04/13 10:06:44;;;;;;;4.10;3.90;;;;;;;9.32;70.70;99710.59;5094093;28;20224;-67
2023/04/13 10:09:10;;;;;;;4.73;4.07;;;;;;;9.33;69.82;99733.66;5093951;28;20280;-67
2023/04/13 10:11:44;;;;;;;12.53;4.20;;;;;;;9.34;69.20;99714.00;5094059;28;20212;-67
2023/04/13 10:14:15;;;;;;;3.83;3.73;;;;;;;9.35;69.27;99717.50;5094146;28;20213;-68
2023/04/13 10:17:12;;;;;;;5.30;5.00;;;;;;;9.25;68.77;99717.41;5093966;28;20635;-67
2023/04/13 10:19:44;;;;;;;4.93;4.53;;;;;;;9.20;69.97;99726.81;5093598;28;20234;-67
2023/04/13 10:22:11;;;;;;;4.67;4.27;;;;;;;9.34;71.36;99722.00;5093598;28;20261;-67
2023/04/13 10:24:38;;;;;;;4.53;4.33;;;;;;;9.51;70.80;99725.94;5093650;28;20301;-67
2023/04/13 10:27:17;;;;;;;9.93;3.97;;;;;;;9.60;70.78;99729.69;5093366;28;20221;-67
2023/04/13 10:29:44;;;;;;;4.27;3.97;;;;;;;9.67;69.92;99730.84;5093640;28;20198;-67
2023/04/13 10:32:27;;;;;;;7.17;4.53;;;;;;;9.69;68.37;99731.56;5093455;28;20261;-67
2023/04/13 10:34:54;;;;;;;4.80;4.00;;;;;;;9.70;67.03;99733.28;5093489;28;20233;-67
2023/04/13 10:37:23;;;;;;;18.23;4.73;;;;;;;9.54;66.40;99746.22;5093307;28;20624;-66
2023/04/13 10:40:09;;;;;;;3.97;3.87;;;;;;;9.58;66.73;99753.03;5093281;28;20248;-66
2023/04/13 10:42:39;;;;;;;4.27;3.83;;;;;;;9.67;67.74;99748.69;5093907;28;20235;-66
2023/04/13 10:45:26;;;;;;;4.23;3.83;;;;;;;9.70;65.66;99746.63;5093526;28;20218;-66
2023/04/13 10:47:53;;;;;;;8.97;3.10;;;;;;;10.00;65.33;99755.72;5093801;28;20272;-66
2023/04/13 10:50:26;;;;;;;12.00;3.90;;;;;;;10.11;67.47;99755.66;5093291;28;20273;-67
2023/04/13 10:52:57;;;;;;;5.17;4.10;;;;;;;10.14;64.38;99758.06;5093316;28;20204;-66
2023/04/13 10:55:26;;;;;;;16.57;4.00;;;;;;;10.09;65.40;99757.59;5075326;28;20251;-66
2023/04/13 10:57:54;;;;;;;7.47;3.50;;;;;;;10.02;62.94;99765.28;5093464;28;20247;-66
2023/04/13 11:00:20;;;;;;;6.80;4.20;;;;;;;9.95;65.04;99764.13;5093223;28;20184;-67
2023/04/13 11:02:58;;;;;;;5.30;4.17;;;;;;;9.97;64.20;99766.66;5093164;28;20180;-66
2023/04/13 11:05:26;;;;;;;7.00;3.83;;;;;;;10.05;65.22;99763.34;5093310;28;20202;-66
2023/04/13 11:07:53;;;;;;;12.80;4.57;;;;;;;10.11;64.79;99766.34;5097758;28;20182;-67
2023/04/13 11:10:28;;;;;;;5.43;3.73;;;;;;;10.10;64.92;99769.13;5097306;28;20202;-67
2023/04/13 11:12:56;;;;;;;9.83;4.67;;;;;;;10.15;63.54;99773.16;5097663;28;20173;-66
2023/04/13 11:15:31;;;;;;;4.93;3.97;;;;;;;10.16;65.71;99771.31;5097053;28;20300;-67
2023/04/13 11:17:59;;;;;;;5.90;4.10;;;;;;;10.27;63.56;99778.41;5097138;28;20208;-67
2023/04/13 11:20:32;;;;;;;4.67;3.30;;;;;;;10.28;62.33;99789.00;5096861;28;20182;-66
2023/04/13 11:23:03;;;;;;;4.43;3.97;;;;;;;10.20;62.25;99776.28;5096947;28;20273;-66
2023/04/13 11:25:29;;;;;;;5.03;3.90;;;;;;;10.32;62.73;99785.09;5097504;28;20237;-66
2023/04/13 11:28:02;;;;;;;12.27;4.23;;;;;;;10.24;62.72;99798.25;5097238;28;20221;-66
2023/04/13 11:30:31;;;;;;;4.37;4.03;;;;;;;10.31;62.68;99798.59;5097245;28;20280;-66
2023/04/13 11:32:59;;;;;;;3.53;3.17;;;;;;;10.31;61.90;99796.78;5096983;28;20264;-66
2023/04/13 11:35:26;;;;;;;4.60;4.23;;;;;;;10.33;62.51;99792.13;5096681;28;20216;-66
2023/04/13 11:37:54;;;;;;;4.70;4.00;;;;;;;10.43;61.87;99801.06;5097208;28;20185;-66
2023/04/13 11:40:26;;;;;;;7.93;4.37;;;;;;;10.44;61.15;99801.94;5096908;28;20166;-66
2023/04/13 11:42:57;;;;;;;7.23;3.60;;;;;;;10.45;60.59;99792.91;5096729;28;20220;-66
2023/04/13 11:45:26;;;;;;;6.70;4.40;;;;;;;10.54;60.66;99805.50;5096528;28;20267;-66
2023/04/13 11:47:54;;;;;;;4.70;3.70;;;;;;;10.59;59.11;99807.78;5096502;28;20615;-66
2023/04/13 11:50:22;;;;;;;4.27;4.00;;;;;;;10.65;60.13;99815.28;5096752;28;20255;-66
2023/04/13 11:52:55;;;;;;;10.53;4.10;;;;;;;10.61;59.61;99814.72;5096682;28;20190;-66
2023/04/13 11:55:22;;;;;;;4.33;3.90;;;;;;;10.69;62.14;99821.22;5096257;28;20615;-66